Lancaster, Ohio
Current Conditions -  °F | °C
As of 4:53 AM on Sunday 25 Jan 2015 (Local Time) from KLHQ Reporting Station
Haze Haze  
Wind Chill: 30°   Ceiling: 3900
Heat Index: 36°   Visibility: 6mi
Dew Point: 31°   Wind: 8mph
Humidity: 82%   Direction: 200°SSW
Pressure: 29.75"   Gusts: NA
Location:  39.71°N, 82.6°W
Report Text: KLHQ 250953Z AUTO 20007KT 6SM HZ OVC039 02/M01 A2975 RMK AO2 SLP082 T00221006
Loading
Personal Weather Stations






























Interactive Weather Map New forecast layout! Learn more

10-Day Weather Forecast

Advertisements
Track Severe Weather on mobile